Orlando, Florida
Traffic Map
Current Weather Conditions
Orlando, Florida
Broken Clouds
Broken Clouds
77°
Feels Like: 79°
Wind Chill: 77° Ceiling: 10000
Heat Index: 79° Visibility: 10mi
Dew Point: 59° Wind: 7mph
Humidity: 54% Direction: 190° (S)
Pressure: 30.04in Gusts: 0mph
Raw Report DataKORL 300253Z AUTO 19006KT 10SM FEW070 BKN100 25/15 A3004 RMK AO2 SLP176 T02500150 53016
Traffic Incident Summary
Active as of:
Severity:
Category:
InformationThere was an issue retrieving the traffic information for this location. Please try a different location or try again shortly.
Advertisements
Track Severe Weather on mobile